createdAt,value
2023-04-15T00:01:43.169Z,12.23
2023-04-15T00:04:14.604Z,12.21
2023-04-15T00:06:51.673Z,12.20
2023-04-15T00:09:23.464Z,12.20
2023-04-15T00:11:55.216Z,12.19
2023-04-15T00:14:26.905Z,12.30
2023-04-15T00:16:58.601Z,12.32
2023-04-15T00:19:30.094Z,12.20
2023-04-15T00:22:01.780Z,12.14
2023-04-15T00:24:33.237Z,12.16
2023-04-15T00:27:04.681Z,12.25
2023-04-15T00:29:36.303Z,12.24
2023-04-15T00:32:07.873Z,12.28
2023-04-15T00:34:39.262Z,12.30
2023-04-15T00:37:11.502Z,12.31
2023-04-15T00:39:42.992Z,12.31
2023-04-15T00:42:14.976Z,12.30
2023-04-15T00:44:46.239Z,12.16
2023-04-15T00:47:19.138Z,12.10
2023-04-15T00:49:50.764Z,12.04
2023-04-15T00:52:22.414Z,12.00
2023-04-15T00:54:54.034Z,11.94
2023-04-15T00:57:26.172Z,12.00
2023-04-15T00:59:59.380Z,12.01
2023-04-15T01:02:31.049Z,12.10
2023-04-15T01:05:02.502Z,12.19
2023-04-15T01:07:34.066Z,12.27
2023-04-15T01:10:06.476Z,12.24
2023-04-15T01:12:38.117Z,12.17
2023-04-15T01:15:11.886Z,12.30
2023-04-15T01:17:43.777Z,12.33
2023-04-15T01:20:16.360Z,12.42
2023-04-15T01:22:48.156Z,12.46
2023-04-15T01:25:24.323Z,12.30
2023-04-15T01:27:55.793Z,12.31
2023-04-15T01:30:27.612Z,12.22
2023-04-15T01:32:58.984Z,12.16
2023-04-15T01:35:30.595Z,12.22
2023-04-15T01:38:06.767Z,12.21
2023-04-15T01:40:38.298Z,12.08
2023-04-15T01:43:09.599Z,11.86
2023-04-15T01:45:41.185Z,11.60
2023-04-15T01:48:12.673Z,11.54
2023-04-15T01:50:44.202Z,11.64
2023-04-15T01:53:16.194Z,11.66
2023-04-15T01:55:47.684Z,11.73
2023-04-15T01:58:19.292Z,11.59
2023-04-15T02:00:50.855Z,11.50
2023-04-15T02:03:22.725Z,11.64
2023-04-15T02:05:54.263Z,11.74
2023-04-15T02:08:25.569Z,11.63
2023-04-15T02:10:57.066Z,11.63
2023-04-15T02:13:28.779Z,11.48
2023-04-15T02:16:00.760Z,11.29
2023-04-15T02:18:32.207Z,11.22
2023-04-15T02:21:06.555Z,11.13
2023-04-15T02:23:38.057Z,11.02
2023-04-15T02:26:09.663Z,10.87
2023-04-15T02:28:41.100Z,10.89
2023-04-15T02:31:12.387Z,10.89
2023-04-15T02:33:43.944Z,10.72
2023-04-15T02:36:15.375Z,10.62
2023-04-15T02:38:46.767Z,10.46
2023-04-15T02:41:18.139Z,10.38
2023-04-15T02:43:49.548Z,10.45
2023-04-15T02:46:23.201Z,10.29
2023-04-15T02:48:54.891Z,10.27
2023-04-15T02:51:26.338Z,10.22
2023-04-15T02:53:58.335Z,10.31
2023-04-15T02:56:30.588Z,10.20
2023-04-15T02:59:02.349Z,10.15
2023-04-15T03:01:33.686Z,10.11
2023-04-15T03:04:05.313Z,10.18
2023-04-15T03:06:36.886Z,10.15
2023-04-15T03:09:08.344Z,10.27
2023-04-15T03:11:41.840Z,10.25
2023-04-15T03:14:13.471Z,10.19
2023-04-15T03:16:44.852Z,10.32
2023-04-15T03:19:16.369Z,10.26
2023-04-15T03:21:47.606Z,10.28
2023-04-15T03:24:19.010Z,10.15
2023-04-15T03:26:50.521Z,10.07
2023-04-15T03:29:21.874Z,10.13
2023-04-15T03:31:53.602Z,10.15
2023-04-15T03:34:24.952Z,10.19
2023-04-15T03:36:56.494Z,10.09
2023-04-15T03:39:28.677Z,9.98
2023-04-15T03:42:10.222Z,10.00
2023-04-15T03:44:51.408Z,10.07
2023-04-15T03:47:30.282Z,10.06
2023-04-15T03:50:12.946Z,10.14
2023-04-15T03:52:57.139Z,10.12
2023-04-15T03:55:37.951Z,10.15
2023-04-15T03:58:18.827Z,10.23
2023-04-15T04:00:50.323Z,10.30
2023-04-15T04:03:22.014Z,10.31
2023-04-15T04:05:54.162Z,10.40
2023-04-15T04:08:25.446Z,10.49
2023-04-15T04:10:57.427Z,10.54
2023-04-15T04:13:28.821Z,10.42
2023-04-15T04:16:00.432Z,10.34
2023-04-15T04:18:31.915Z,10.38
2023-04-15T04:21:03.697Z,10.31
2023-04-15T04:23:35.208Z,10.32
2023-04-15T04:26:06.470Z,10.25
2023-04-15T04:28:39.829Z,10.15
2023-04-15T04:31:11.677Z,10.14
2023-04-15T04:33:43.378Z,10.18
2023-04-15T04:36:14.813Z,10.17
2023-04-15T04:38:46.211Z,10.21
2023-04-15T04:41:17.868Z,10.19
2023-04-15T04:43:49.315Z,10.23
2023-04-15T04:46:20.908Z,10.30
2023-04-15T04:48:52.246Z,10.25
2023-04-15T04:51:23.583Z,10.27
2023-04-15T04:53:55.374Z,10.39
2023-04-15T04:56:26.717Z,10.32
2023-04-15T04:58:58.387Z,10.34
2023-04-15T05:01:29.953Z,10.27
2023-04-15T05:04:01.595Z,10.26
2023-04-15T05:06:33.463Z,10.18
2023-04-15T05:09:04.951Z,10.20
2023-04-15T05:11:36.523Z,10.28
2023-04-15T05:14:07.840Z,10.34
2023-04-15T05:16:39.072Z,10.32
2023-04-15T05:19:10.923Z,10.36
2023-04-15T05:21:42.299Z,10.35
2023-04-15T05:24:13.830Z,10.26
2023-04-15T05:26:45.202Z,10.19
2023-04-15T05:29:16.568Z,10.19
2023-04-15T05:31:48.063Z,10.26
2023-04-15T05:34:19.610Z,10.25
2023-04-15T05:36:51.119Z,10.29
2023-04-15T05:39:22.591Z,10.30
2023-04-15T05:41:54.027Z,10.37
2023-04-15T05:44:25.966Z,10.35
2023-04-15T05:46:57.396Z,10.33
2023-04-15T05:49:29.102Z,10.33
2023-04-15T05:52:00.476Z,10.35
2023-04-15T05:54:31.970Z,10.31
2023-04-15T05:57:03.468Z,10.36
2023-04-15T05:59:34.930Z,10.34
2023-04-15T06:02:06.543Z,10.39
2023-04-15T06:04:38.852Z,10.47
2023-04-15T06:07:10.310Z,10.42
2023-04-15T06:09:42.057Z,10.43
2023-04-15T06:12:13.509Z,10.52
2023-04-15T06:14:44.980Z,10.63
2023-04-15T06:17:18.750Z,10.61
2023-04-15T06:19:55.681Z,10.56
2023-04-15T06:22:27.255Z,10.65
2023-04-15T06:24:58.650Z,10.73
2023-04-15T06:27:30.105Z,10.74
2023-04-15T06:30:01.663Z,10.72
2023-04-15T06:32:33.867Z,10.75
2023-04-15T06:35:05.746Z,10.78
2023-04-15T06:37:37.385Z,10.84
2023-04-15T06:40:11.451Z,10.81
2023-04-15T06:42:42.769Z,10.83
2023-04-15T06:45:15.030Z,10.84
2023-04-15T06:47:47.072Z,10.75
2023-04-15T06:50:18.633Z,10.78
2023-04-15T06:52:50.194Z,10.82
2023-04-15T06:55:21.726Z,10.77
2023-04-15T06:57:53.255Z,10.69
2023-04-15T07:00:25.781Z,10.71
2023-04-15T07:02:57.404Z,10.74
2023-04-15T07:05:28.896Z,10.74
2023-04-15T07:08:00.633Z,10.72
2023-04-15T07:10:31.981Z,10.68
2023-04-15T07:13:03.497Z,10.70
2023-04-15T07:15:34.916Z,10.72
2023-04-15T07:18:07.087Z,10.69
2023-04-15T07:20:38.689Z,10.63
2023-04-15T07:23:10.216Z,10.67
2023-04-15T07:25:41.623Z,10.72
2023-04-15T07:28:13.150Z,10.66
2023-04-15T07:30:44.496Z,10.77
2023-04-15T07:33:16.095Z,10.82
2023-04-15T07:35:48.088Z,10.76
2023-04-15T07:38:19.451Z,10.77
2023-04-15T07:40:51.269Z,10.81
2023-04-15T07:43:23.146Z,10.84
2023-04-15T07:45:54.659Z,10.87
2023-04-15T07:48:26.176Z,10.83
2023-04-15T07:50:57.968Z,11.00
2023-04-15T07:53:29.743Z,11.05
2023-04-15T07:56:01.571Z,11.01
2023-04-15T07:58:33.423Z,10.96
2023-04-15T08:01:06.165Z,10.82
2023-04-15T08:03:37.929Z,10.80
2023-04-15T08:06:09.807Z,10.71
2023-04-15T08:08:43.410Z,10.69
2023-04-15T08:11:16.575Z,10.80
2023-04-15T08:13:48.416Z,10.83
2023-04-15T08:16:23.286Z,10.89
2023-04-15T08:18:57.068Z,10.97
2023-04-15T08:21:31.137Z,11.06
2023-04-15T08:24:04.231Z,11.13
2023-04-15T08:26:36.004Z,11.20
2023-04-15T08:29:07.710Z,11.20
2023-04-15T08:31:39.553Z,11.30
2023-04-15T08:34:11.084Z,11.26
2023-04-15T08:36:42.886Z,11.12
2023-04-15T08:39:14.578Z,10.99
2023-04-15T08:41:50.069Z,10.87
2023-04-15T08:44:22.750Z,10.84
2023-04-15T08:46:55.004Z,10.93
2023-04-15T08:49:28.889Z,10.96
2023-04-15T08:52:02.086Z,10.85
2023-04-15T08:54:34.005Z,11.02
2023-04-15T08:57:05.917Z,10.97
2023-04-15T08:59:37.452Z,11.06
2023-04-15T09:02:09.487Z,11.14
2023-04-15T09:04:41.708Z,11.21
2023-04-15T09:07:13.248Z,11.30
2023-04-15T09:09:44.612Z,11.27
2023-04-15T09:12:17.306Z,11.37
2023-04-15T09:14:49.737Z,11.22
2023-04-15T09:17:23.046Z,11.20
2023-04-15T09:20:12.034Z,11.07
2023-04-15T09:22:44.513Z,11.09
2023-04-15T09:25:34.815Z,11.00
2023-04-15T09:28:08.678Z,11.08
2023-04-15T09:30:40.260Z,11.27
2023-04-15T09:33:12.421Z,11.17
2023-04-15T09:35:44.150Z,11.18
2023-04-15T09:38:16.143Z,11.29
2023-04-15T09:40:47.648Z,11.37
2023-04-15T09:43:19.294Z,11.26
2023-04-15T09:45:55.964Z,11.36
2023-04-15T09:48:29.289Z,11.49
2023-04-15T09:51:03.062Z,11.52
2023-04-15T09:53:39.277Z,11.41
2023-04-15T09:56:12.414Z,11.38
2023-04-15T09:58:44.532Z,11.40
2023-04-15T10:01:16.022Z,11.45
2023-04-15T10:03:48.913Z,11.54
2023-04-15T10:06:20.873Z,11.52
2023-04-15T10:08:52.423Z,11.39
2023-04-15T10:11:24.997Z,11.55
2023-04-15T10:13:57.908Z,11.66
2023-04-15T10:16:31.497Z,11.57
2023-04-15T10:19:05.910Z,11.61
2023-04-15T10:21:39.199Z,11.56
2023-04-15T10:24:11.483Z,11.42
2023-04-15T10:26:43.553Z,11.32
2023-04-15T10:29:16.078Z,11.22
2023-04-15T10:31:48.033Z,11.30
2023-04-15T10:34:20.507Z,11.26
2023-04-15T10:36:52.642Z,11.22
2023-04-15T10:39:47.081Z,11.21
2023-04-15T10:42:20.984Z,11.22
2023-04-15T10:45:03.889Z,11.13
2023-04-15T10:47:35.905Z,11.28
2023-04-15T10:50:08.680Z,11.36
2023-04-15T10:52:45.311Z,11.57
2023-04-15T10:55:21.367Z,11.68
2023-04-15T10:58:01.949Z,11.79
2023-04-15T11:00:40.144Z,11.93
2023-04-15T11:03:12.529Z,12.03
2023-04-15T11:06:04.325Z,12.20
2023-04-15T11:09:02.853Z,12.42
2023-04-15T11:12:10.023Z,12.60
2023-04-15T11:14:54.139Z,12.48
2023-04-15T11:17:32.001Z,12.44
2023-04-15T11:20:05.823Z,12.30
2023-04-15T11:22:37.770Z,12.20
2023-04-15T11:25:10.250Z,12.22
2023-04-15T11:27:41.809Z,12.18
2023-04-15T11:30:24.601Z,12.26
2023-04-15T11:33:00.146Z,12.40
2023-04-15T11:35:31.858Z,12.54
2023-04-15T11:38:07.065Z,12.61
2023-04-15T11:40:39.470Z,12.60
2023-04-15T11:43:13.410Z,12.70
2023-04-15T11:45:56.171Z,12.86
2023-04-15T11:48:29.345Z,12.97
2023-04-15T11:51:01.959Z,12.92
2023-04-15T11:53:42.440Z,12.87
2023-04-15T11:56:19.997Z,12.77
2023-04-15T11:58:53.645Z,12.70
2023-04-15T12:01:35.454Z,12.67
2023-04-15T12:04:15.026Z,12.73
2023-04-15T12:06:46.613Z,12.71
2023-04-15T12:09:18.361Z,12.65
2023-04-15T12:11:51.613Z,12.70
2023-04-15T12:14:29.304Z,12.80
2023-04-15T12:17:02.566Z,12.84
2023-04-15T12:19:36.853Z,12.84
2023-04-15T12:22:10.614Z,12.86
2023-04-15T12:24:44.326Z,12.95
2023-04-15T12:27:17.229Z,13.03
2023-04-15T12:29:48.738Z,13.00
2023-04-15T12:32:22.191Z,13.04
2023-04-15T12:34:55.548Z,13.07
2023-04-15T12:37:27.521Z,12.97
2023-04-15T12:39:59.004Z,12.92
2023-04-15T12:42:31.905Z,12.94
2023-04-15T12:45:03.386Z,12.81
2023-04-15T12:47:35.106Z,12.80
2023-04-15T12:50:07.542Z,12.91
2023-04-15T12:52:39.074Z,13.05
2023-04-15T12:55:12.683Z,13.11
2023-04-15T12:57:44.625Z,13.21
2023-04-15T13:00:19.090Z,13.25
2023-04-15T13:02:51.209Z,13.24
2023-04-15T13:05:22.772Z,13.32
2023-04-15T13:07:54.420Z,13.25
2023-04-15T13:10:25.962Z,13.31
2023-04-15T13:12:58.175Z,13.43
2023-04-15T13:15:29.626Z,13.53
2023-04-15T13:18:01.486Z,13.57
2023-04-15T13:20:33.122Z,13.45
2023-04-15T13:23:04.687Z,13.46
2023-04-15T13:25:36.635Z,13.63
2023-04-15T13:28:08.125Z,13.64
2023-04-15T13:30:40.989Z,13.79
2023-04-15T13:33:12.433Z,13.77
2023-04-15T13:35:44.601Z,13.76
2023-04-15T13:38:16.220Z,13.80
2023-04-15T13:40:47.912Z,13.83
2023-04-15T13:43:19.749Z,13.78
2023-04-15T13:45:51.767Z,13.70
2023-04-15T13:48:23.266Z,13.78
2023-04-15T13:50:54.620Z,13.72
2023-04-15T13:53:33.994Z,13.72
2023-04-15T13:56:12.089Z,13.90
2023-04-15T13:58:44.571Z,13.84
2023-04-15T14:01:16.763Z,13.78
2023-04-15T14:03:48.310Z,13.93
2023-04-15T14:06:20.008Z,14.04
2023-04-15T14:08:53.094Z,14.00
2023-04-15T14:11:24.870Z,13.95
2023-04-15T14:13:56.353Z,14.00
2023-04-15T14:16:27.844Z,14.14
2023-04-15T14:19:00.234Z,14.22
2023-04-15T14:21:32.908Z,14.16
2023-04-15T14:24:04.308Z,14.11
2023-04-15T14:26:35.897Z,14.13
2023-04-15T14:29:07.477Z,14.13
2023-04-15T14:31:38.920Z,13.92
2023-04-15T14:34:13.152Z,13.93
2023-04-15T14:36:45.103Z,13.98
2023-04-15T14:39:17.443Z,14.00
2023-04-15T14:41:49.807Z,14.04
2023-04-15T14:44:21.761Z,14.04
2023-04-15T14:46:54.978Z,14.09
2023-04-15T14:49:27.008Z,14.04
2023-04-15T14:51:58.421Z,14.11
2023-04-15T14:54:30.310Z,14.18
2023-04-15T14:57:03.295Z,14.32
2023-04-15T14:59:34.925Z,14.35
2023-04-15T15:02:06.937Z,14.49
2023-04-15T15:04:40.938Z,14.48
2023-04-15T15:07:12.509Z,14.39
2023-04-15T15:09:43.974Z,14.36
2023-04-15T15:12:16.534Z,14.41
2023-04-15T15:14:48.093Z,14.42
2023-04-15T15:17:20.942Z,14.51
2023-04-15T15:19:54.606Z,14.50
2023-04-15T15:22:26.353Z,14.47
2023-04-15T15:25:00.512Z,14.52
2023-04-15T15:27:32.498Z,14.52
2023-04-15T15:30:04.409Z,14.54
2023-04-15T15:32:36.045Z,14.48
2023-04-15T15:35:08.675Z,14.32
2023-04-15T15:37:41.091Z,14.20
2023-04-15T15:40:15.324Z,14.09
2023-04-15T15:42:50.119Z,14.04
2023-04-15T15:45:22.301Z,14.06
2023-04-15T15:47:54.850Z,14.13
2023-04-15T15:50:26.789Z,14.02
2023-04-15T15:52:59.033Z,14.00
2023-04-15T15:55:30.817Z,14.04
2023-04-15T15:58:02.478Z,14.15
2023-04-15T16:00:34.046Z,14.14
2023-04-15T16:03:07.182Z,14.06
2023-04-15T16:05:40.005Z,14.05
2023-04-15T16:08:11.596Z,14.02
2023-04-15T16:10:43.262Z,14.08
2023-04-15T16:13:14.825Z,14.19
2023-04-15T16:15:46.511Z,14.34
2023-04-15T16:18:18.093Z,14.29
2023-04-15T16:20:49.593Z,14.43
2023-04-15T16:23:24.237Z,14.44
2023-04-15T16:25:54.278Z,14.30
2023-04-15T16:28:27.542Z,14.02
2023-04-15T16:30:59.077Z,14.05
2023-04-15T16:33:31.406Z,14.15
2023-04-15T16:36:03.249Z,14.07
2023-04-15T16:38:35.156Z,13.81
2023-04-15T16:41:07.265Z,13.82
2023-04-15T16:43:39.853Z,13.85
2023-04-15T16:46:11.854Z,13.80
2023-04-15T16:48:43.675Z,13.84
2023-04-15T16:51:15.232Z,13.73
2023-04-15T16:53:47.293Z,13.57
2023-04-15T16:56:19.175Z,13.70
2023-04-15T16:58:50.519Z,13.73
2023-04-15T17:01:23.310Z,13.67
2023-04-15T17:03:56.121Z,13.58
2023-04-15T17:06:28.643Z,13.63
2023-04-15T17:09:00.191Z,13.45
2023-04-15T17:11:33.266Z,13.26
2023-04-15T17:14:05.576Z,13.10
2023-04-15T17:16:37.740Z,13.08
2023-04-15T17:19:12.649Z,13.14
2023-04-15T17:21:44.818Z,13.23
2023-04-15T17:24:17.032Z,13.31
2023-04-15T17:26:49.796Z,13.10
2023-04-15T17:29:21.488Z,12.93
2023-04-15T17:31:53.163Z,12.95
2023-04-15T17:34:25.450Z,13.12
2023-04-15T17:37:20.934Z,13.24
2023-04-15T17:39:53.070Z,13.21
2023-04-15T17:42:27.726Z,13.25
2023-04-15T17:45:04.112Z,13.24
2023-04-15T17:47:37.877Z,13.24
2023-04-15T17:50:11.262Z,13.25
2023-04-15T17:52:44.331Z,13.26
2023-04-15T17:55:23.164Z,13.27
2023-04-15T17:58:02.462Z,13.16
2023-04-15T18:00:34.653Z,13.07
2023-04-15T18:03:08.474Z,13.03
2023-04-15T18:05:42.676Z,12.87
2023-04-15T18:08:15.100Z,12.83
2023-04-15T18:10:47.851Z,12.79
2023-04-15T18:13:21.973Z,12.82
2023-04-15T18:15:54.295Z,12.73
2023-04-15T18:18:29.293Z,12.72
2023-04-15T18:21:02.889Z,12.73
2023-04-15T18:23:35.691Z,12.73
2023-04-15T18:26:09.041Z,12.81
2023-04-15T18:28:41.957Z,12.89
2023-04-15T18:31:13.963Z,12.83
2023-04-15T18:33:46.629Z,12.70
2023-04-15T18:36:19.095Z,12.65
2023-04-15T18:38:52.124Z,12.66
2023-04-15T18:41:26.028Z,12.67
2023-04-15T18:43:59.755Z,12.62
2023-04-15T18:46:33.567Z,12.73
2023-04-15T18:49:10.465Z,12.65
2023-04-15T18:51:43.312Z,12.51
2023-04-15T18:54:16.244Z,12.41
2023-04-15T18:56:49.393Z,12.42
2023-04-15T18:59:30.099Z,12.34
2023-04-15T19:02:04.448Z,12.32
2023-04-15T19:04:37.540Z,12.26
2023-04-15T19:07:13.585Z,12.23
2023-04-15T19:09:48.230Z,12.30
2023-04-15T19:12:18.517Z,12.26
2023-04-15T19:14:51.709Z,12.11
2023-04-15T19:17:26.241Z,12.09
2023-04-15T19:20:00.007Z,12.11
2023-04-15T19:22:38.988Z,12.09
2023-04-15T19:25:16.786Z,12.10
2023-04-15T19:27:48.866Z,12.23
2023-04-15T19:30:22.751Z,12.34
2023-04-15T19:32:56.150Z,12.32
2023-04-15T19:35:27.841Z,12.26
2023-04-15T19:38:05.810Z,12.15
2023-04-15T19:40:41.202Z,12.01
2023-04-15T19:43:18.144Z,11.95
2023-04-15T19:45:52.635Z,11.81
2023-04-15T19:48:26.315Z,11.76
2023-04-15T19:50:59.553Z,11.88
2023-04-15T19:53:34.336Z,11.91
2023-04-15T19:56:19.517Z,11.86
2023-04-15T19:58:54.244Z,11.74
2023-04-15T20:01:26.956Z,11.66
2023-04-15T20:04:00.310Z,11.71
2023-04-15T20:06:34.959Z,11.81
2023-04-15T20:09:10.951Z,11.72
2023-04-15T20:12:46.851Z,11.60
2023-04-15T20:14:37.019Z,11.63
2023-04-15T20:17:09.845Z,11.56
2023-04-15T20:19:42.964Z,11.46
2023-04-15T20:22:19.728Z,11.57
2023-04-15T20:24:52.970Z,11.60
2023-04-15T20:27:26.018Z,11.64
2023-04-15T20:29:58.906Z,11.70
2023-04-15T20:32:34.137Z,11.58
2023-04-15T20:35:07.201Z,11.45
2023-04-15T20:37:41.127Z,11.34
2023-04-15T20:40:16.567Z,11.25
2023-04-15T20:42:48.707Z,11.22
2023-04-15T20:45:20.668Z,11.18
2023-04-15T20:47:57.378Z,11.23
2023-04-15T20:50:30.115Z,11.23
2023-04-15T20:53:05.490Z,11.49
2023-04-15T20:55:37.498Z,11.62
2023-04-15T20:58:10.491Z,11.53
2023-04-15T21:00:42.394Z,11.56
2023-04-15T21:03:15.694Z,11.51
2023-04-15T21:05:47.455Z,11.32
2023-04-15T21:08:19.299Z,11.21
2023-04-15T21:10:50.867Z,11.14
2023-04-15T21:13:22.408Z,11.04
2023-04-15T21:15:54.809Z,11.16
2023-04-15T21:18:26.806Z,11.18
2023-04-15T21:21:02.974Z,11.16
2023-04-15T21:23:36.445Z,11.15
2023-04-15T21:26:08.401Z,11.21
2023-04-15T21:28:39.744Z,11.32
2023-04-15T21:31:11.231Z,11.27
2023-04-15T21:33:43.393Z,11.29
2023-04-15T21:36:14.911Z,11.25
2023-04-15T21:38:46.345Z,11.21
2023-04-15T21:41:17.983Z,11.21
2023-04-15T21:43:49.692Z,11.15
2023-04-15T21:46:25.382Z,11.07
2023-04-15T21:48:58.731Z,11.05
2023-04-15T21:51:30.303Z,10.97
2023-04-15T21:54:02.099Z,10.95
2023-04-15T21:56:33.526Z,10.97
2023-04-15T21:59:05.216Z,10.93
2023-04-15T22:01:36.963Z,11.01
2023-04-15T22:04:10.017Z,11.10
2023-04-15T22:06:41.593Z,10.97
2023-04-15T22:09:14.402Z,11.00
2023-04-15T22:11:47.542Z,11.02
2023-04-15T22:14:19.119Z,10.91
2023-04-15T22:16:50.497Z,10.95
2023-04-15T22:19:22.269Z,10.90
2023-04-15T22:21:54.613Z,10.81
2023-04-15T22:24:38.064Z,10.72
2023-04-15T22:27:12.244Z,10.65
2023-04-15T22:29:43.939Z,10.72
2023-04-15T22:32:15.598Z,10.91
2023-04-15T22:34:47.035Z,11.04
2023-04-15T22:37:18.705Z,11.05
2023-04-15T22:39:49.989Z,10.90
2023-04-15T22:42:21.427Z,10.82
2023-04-15T22:44:53.130Z,10.82
2023-04-15T22:47:24.462Z,10.81
2023-04-15T22:49:56.045Z,10.71
2023-04-15T22:52:30.910Z,10.80
2023-04-15T22:55:02.816Z,10.86
2023-04-15T22:57:34.252Z,10.78
2023-04-15T23:00:06.241Z,10.78
2023-04-15T23:02:38.370Z,10.81
2023-04-15T23:05:12.644Z,10.72
2023-04-15T23:07:42.905Z,10.76
2023-04-15T23:10:14.413Z,10.92
2023-04-15T23:12:45.877Z,10.95
2023-04-15T23:15:17.367Z,10.93
2023-04-15T23:17:48.842Z,10.88
2023-04-15T23:20:21.293Z,10.81
2023-04-15T23:22:53.557Z,10.81
2023-04-15T23:25:25.090Z,10.93
2023-04-15T23:27:56.666Z,10.85
2023-04-15T23:30:28.258Z,10.72
2023-04-15T23:32:59.886Z,10.69
2023-04-15T23:35:31.210Z,10.63
2023-04-15T23:38:03.178Z,10.57
2023-04-15T23:40:35.239Z,10.47
2023-04-15T23:43:06.756Z,10.45
2023-04-15T23:45:38.376Z,10.41
2023-04-15T23:48:10.443Z,10.39
2023-04-15T23:50:41.993Z,10.55
2023-04-15T23:53:13.561Z,10.54
2023-04-15T23:55:46.352Z,10.45
2023-04-15T23:58:17.845Z,10.55
